sensor_id;sensor_type;location;lat;lon;timestamp;temperature;humidity
32728;DHT22;55292;51.844;19.246;2023-07-31T00:04:10;16.90;99.90
32728;DHT22;55292;51.844;19.246;2023-07-31T00:09:12;17.00;99.90
32728;DHT22;55292;51.844;19.246;2023-07-31T00:14:15;17.10;99.90
32728;DHT22;55292;51.844;19.246;2023-07-31T00:19:18;17.10;99.90
32728;DHT22;55292;51.844;19.246;2023-07-31T00:24:21;16.90;99.90
32728;DHT22;55292;51.844;19.246;2023-07-31T00:29:24;16.70;99.90
32728;DHT22;55292;51.844;19.246;2023-07-31T00:34:26;16.50;99.90
32728;DHT22;55292;51.844;19.246;2023-07-31T00:39:31;16.20;99.90
32728;DHT22;55292;51.844;19.246;2023-07-31T00:44:34;16.20;99.90
32728;DHT22;55292;51.844;19.246;2023-07-31T00:49:37;16.10;99.90
32728;DHT22;55292;51.844;19.246;2023-07-31T00:54:40;16.20;99.90
32728;DHT22;55292;51.844;19.246;2023-07-31T00:59:43;16.30;99.90
32728;DHT22;55292;51.844;19.246;2023-07-31T01:04:46;16.20;99.90
32728;DHT22;55292;51.844;19.246;2023-07-31T01:15:10;15.80;99.90
32728;DHT22;55292;51.844;19.246;2023-07-31T01:20:22;15.80;99.90
32728;DHT22;55292;51.844;19.246;2023-07-31T01:30:49;15.80;99.90
32728;DHT22;55292;51.844;19.246;2023-07-31T01:35:52;15.90;99.90
32728;DHT22;55292;51.844;19.246;2023-07-31T01:40:56;16.00;99.90
32728;DHT22;55292;51.844;19.246;2023-07-31T01:46:00;16.00;99.90
32728;DHT22;55292;51.844;19.246;2023-07-31T01:51:03;16.00;99.90
32728;DHT22;55292;51.844;19.246;2023-07-31T01:56:06;16.10;99.90
32728;DHT22;55292;51.844;19.246;2023-07-31T02:01:09;16.10;99.90
32728;DHT22;55292;51.844;19.246;2023-07-31T02:06:12;16.10;99.90
32728;DHT22;55292;51.844;19.246;2023-07-31T02:11:14;16.10;99.90
32728;DHT22;55292;51.844;19.246;2023-07-31T02:16:17;16.10;99.90
32728;DHT22;55292;51.844;19.246;2023-07-31T02:21:20;16.10;99.90
32728;DHT22;55292;51.844;19.246;2023-07-31T02:26:23;16.10;99.90
32728;DHT22;55292;51.844;19.246;2023-07-31T02:31:26;16.10;99.90
32728;DHT22;55292;51.844;19.246;2023-07-31T02:36:29;15.90;99.90
32728;DHT22;55292;51.844;19.246;2023-07-31T02:41:32;15.90;99.90
32728;DHT22;55292;51.844;19.246;2023-07-31T02:46:34;15.80;99.90
32728;DHT22;55292;51.844;19.246;2023-07-31T02:51:37;15.80;99.90
32728;DHT22;55292;51.844;19.246;2023-07-31T02:56:40;15.80;99.90
32728;DHT22;55292;51.844;19.246;2023-07-31T03:01:43;15.80;99.90
32728;DHT22;55292;51.844;19.246;2023-07-31T03:06:46;15.80;99.90
32728;DHT22;55292;51.844;19.246;2023-07-31T03:11:49;15.90;99.90
32728;DHT22;55292;51.844;19.246;2023-07-31T03:16:51;15.90;99.90
32728;DHT22;55292;51.844;19.246;2023-07-31T03:21:54;16.00;99.90
32728;DHT22;55292;51.844;19.246;2023-07-31T03:26:57;16.10;99.90
32728;DHT22;55292;51.844;19.246;2023-07-31T03:31:59;16.20;99.90
32728;DHT22;55292;51.844;19.246;2023-07-31T03:37:03;16.20;99.90
32728;DHT22;55292;51.844;19.246;2023-07-31T03:42:08;16.20;99.90
32728;DHT22;55292;51.844;19.246;2023-07-31T03:47:10;16.20;99.90
32728;DHT22;55292;51.844;19.246;2023-07-31T03:52:14;16.20;99.90
32728;DHT22;55292;51.844;19.246;2023-07-31T03:57:17;16.20;99.90
32728;DHT22;55292;51.844;19.246;2023-07-31T04:02:20;16.20;99.90
32728;DHT22;55292;51.844;19.246;2023-07-31T04:07:22;16.30;99.90
32728;DHT22;55292;51.844;19.246;2023-07-31T04:12:25;16.50;99.90
32728;DHT22;55292;51.844;19.246;2023-07-31T04:17:28;16.80;99.90
32728;DHT22;55292;51.844;19.246;2023-07-31T04:22:31;17.00;99.90
32728;DHT22;55292;51.844;19.246;2023-07-31T04:27:33;17.10;99.90
32728;DHT22;55292;51.844;19.246;2023-07-31T04:32:36;17.20;99.90
32728;DHT22;55292;51.844;19.246;2023-07-31T04:37:39;17.30;99.90
32728;DHT22;55292;51.844;19.246;2023-07-31T04:42:41;17.50;99.90
32728;DHT22;55292;51.844;19.246;2023-07-31T04:47:44;17.80;99.90
32728;DHT22;55292;51.844;19.246;2023-07-31T04:52:47;18.10;99.90
32728;DHT22;55292;51.844;19.246;2023-07-31T04:57:49;18.30;99.90
32728;DHT22;55292;51.844;19.246;2023-07-31T05:02:52;18.60;99.90
32728;DHT22;55292;51.844;19.246;2023-07-31T05:07:55;18.70;99.90
32728;DHT22;55292;51.844;19.246;2023-07-31T05:12:58;18.80;99.90
32728;DHT22;55292;51.844;19.246;2023-07-31T05:18:00;19.20;99.90
32728;DHT22;55292;51.844;19.246;2023-07-31T05:23:03;19.80;99.90
32728;DHT22;55292;51.844;19.246;2023-07-31T05:28:06;20.40;99.90
32728;DHT22;55292;51.844;19.246;2023-07-31T05:33:08;21.70;99.90
32728;DHT22;55292;51.844;19.246;2023-07-31T05:38:14;21.40;99.90
32728;DHT22;55292;51.844;19.246;2023-07-31T05:43:17;22.60;99.90
32728;DHT22;55292;51.844;19.246;2023-07-31T05:48:20;24.10;99.90
32728;DHT22;55292;51.844;19.246;2023-07-31T05:53:22;23.30;99.90
32728;DHT22;55292;51.844;19.246;2023-07-31T05:58:25;23.20;99.90
32728;DHT22;55292;51.844;19.246;2023-07-31T06:03:28;23.70;99.90
32728;DHT22;55292;51.844;19.246;2023-07-31T06:08:31;24.10;99.90
32728;DHT22;55292;51.844;19.246;2023-07-31T06:13:33;23.10;99.90
32728;DHT22;55292;51.844;19.246;2023-07-31T06:18:36;22.50;99.90
32728;DHT22;55292;51.844;19.246;2023-07-31T06:23:39;22.70;99.90
32728;DHT22;55292;51.844;19.246;2023-07-31T06:28:41;22.50;99.90
32728;DHT22;55292;51.844;19.246;2023-07-31T06:33:44;22.50;99.90
32728;DHT22;55292;51.844;19.246;2023-07-31T06:38:47;22.60;99.90
32728;DHT22;55292;51.844;19.246;2023-07-31T06:43:52;22.60;99.90
32728;DHT22;55292;51.844;19.246;2023-07-31T06:48:54;22.50;99.90
32728;DHT22;55292;51.844;19.246;2023-07-31T06:53:58;22.50;99.90
32728;DHT22;55292;51.844;19.246;2023-07-31T06:59:00;22.30;99.90
32728;DHT22;55292;51.844;19.246;2023-07-31T07:04:03;22.30;99.90
32728;DHT22;55292;51.844;19.246;2023-07-31T07:09:06;22.30;99.90
32728;DHT22;55292;51.844;19.246;2023-07-31T07:14:09;22.40;99.90
32728;DHT22;55292;51.844;19.246;2023-07-31T07:19:12;22.70;99.90
32728;DHT22;55292;51.844;19.246;2023-07-31T07:24:15;22.50;99.90
32728;DHT22;55292;51.844;19.246;2023-07-31T07:29:17;22.90;99.90
32728;DHT22;55292;51.844;19.246;2023-07-31T07:34:24;23.00;99.90
32728;DHT22;55292;51.844;19.246;2023-07-31T07:39:26;23.10;99.90
32728;DHT22;55292;51.844;19.246;2023-07-31T07:44:29;22.80;99.50
32728;DHT22;55292;51.844;19.246;2023-07-31T07:49:35;23.20;99.90
32728;DHT22;55292;51.844;19.246;2023-07-31T07:54:38;23.40;98.10
32728;DHT22;55292;51.844;19.246;2023-07-31T07:59:41;23.60;97.70
32728;DHT22;55292;51.844;19.246;2023-07-31T08:04:44;23.40;96.10
32728;DHT22;55292;51.844;19.246;2023-07-31T08:09:48;23.60;95.60
32728;DHT22;55292;51.844;19.246;2023-07-31T08:14:50;23.90;96.00
32728;DHT22;55292;51.844;19.246;2023-07-31T08:19:54;24.50;95.10
32728;DHT22;55292;51.844;19.246;2023-07-31T08:24:56;24.70;94.80
32728;DHT22;55292;51.844;19.246;2023-07-31T08:29:59;25.00;93.40
32728;DHT22;55292;51.844;19.246;2023-07-31T08:35:02;25.20;91.50
32728;DHT22;55292;51.844;19.246;2023-07-31T08:40:05;25.40;92.10
32728;DHT22;55292;51.844;19.246;2023-07-31T08:45:09;25.20;91.20
32728;DHT22;55292;51.844;19.246;2023-07-31T08:50:14;25.20;90.20
32728;DHT22;55292;51.844;19.246;2023-07-31T08:55:18;24.90;90.20
32728;DHT22;55292;51.844;19.246;2023-07-31T09:00:26;24.90;89.80
32728;DHT22;55292;51.844;19.246;2023-07-31T09:05:31;24.90;90.30
32728;DHT22;55292;51.844;19.246;2023-07-31T09:10:33;25.60;89.70
32728;DHT22;55292;51.844;19.246;2023-07-31T09:15:36;25.40;87.20
32728;DHT22;55292;51.844;19.246;2023-07-31T09:20:42;25.30;86.00
32728;DHT22;55292;51.844;19.246;2023-07-31T09:25:46;25.20;84.70
32728;DHT22;55292;51.844;19.246;2023-07-31T09:30:50;24.70;84.40
32728;DHT22;55292;51.844;19.246;2023-07-31T09:35:53;24.60;83.20
32728;DHT22;55292;51.844;19.246;2023-07-31T09:40:58;24.90;83.00
32728;DHT22;55292;51.844;19.246;2023-07-31T09:46:01;25.20;82.30
32728;DHT22;55292;51.844;19.246;2023-07-31T09:51:05;25.50;81.70
32728;DHT22;55292;51.844;19.246;2023-07-31T09:56:07;25.80;80.90
32728;DHT22;55292;51.844;19.246;2023-07-31T10:01:11;25.70;79.60
32728;DHT22;55292;51.844;19.246;2023-07-31T10:06:14;25.80;79.20
32728;DHT22;55292;51.844;19.246;2023-07-31T10:11:19;26.20;78.80
32728;DHT22;55292;51.844;19.246;2023-07-31T10:16:23;26.10;78.60
32728;DHT22;55292;51.844;19.246;2023-07-31T10:21:26;26.40;76.70
32728;DHT22;55292;51.844;19.246;2023-07-31T10:26:29;26.20;76.00
32728;DHT22;55292;51.844;19.246;2023-07-31T10:31:34;26.10;75.70
32728;DHT22;55292;51.844;19.246;2023-07-31T10:36:37;25.70;76.20
32728;DHT22;55292;51.844;19.246;2023-07-31T10:41:41;25.70;74.60
32728;DHT22;55292;51.844;19.246;2023-07-31T10:46:45;25.70;75.20
32728;DHT22;55292;51.844;19.246;2023-07-31T10:51:48;25.80;76.60
32728;DHT22;55292;51.844;19.246;2023-07-31T10:56:51;26.00;76.10
32728;DHT22;55292;51.844;19.246;2023-07-31T11:01:56;26.30;73.90
32728;DHT22;55292;51.844;19.246;2023-07-31T11:07:05;26.50;74.80
32728;DHT22;55292;51.844;19.246;2023-07-31T11:12:10;26.50;74.50
32728;DHT22;55292;51.844;19.246;2023-07-31T11:17:14;26.40;74.30
32728;DHT22;55292;51.844;19.246;2023-07-31T11:22:17;26.30;72.50
32728;DHT22;55292;51.844;19.246;2023-07-31T11:27:20;25.70;73.30
32728;DHT22;55292;51.844;19.246;2023-07-31T11:32:23;25.20;74.80
32728;DHT22;55292;51.844;19.246;2023-07-31T11:37:41;25.00;74.20
32728;DHT22;55292;51.844;19.246;2023-07-31T11:42:45;25.20;75.80
32728;DHT22;55292;51.844;19.246;2023-07-31T11:47:48;25.20;75.40
32728;DHT22;55292;51.844;19.246;2023-07-31T11:52:57;25.20;75.50
32728;DHT22;55292;51.844;19.246;2023-07-31T11:58:01;25.20;76.50
32728;DHT22;55292;51.844;19.246;2023-07-31T12:03:04;25.00;77.70
32728;DHT22;55292;51.844;19.246;2023-07-31T12:08:11;24.50;77.50
32728;DHT22;55292;51.844;19.246;2023-07-31T12:13:22;24.30;79.30
32728;DHT22;55292;51.844;19.246;2023-07-31T12:18:27;24.00;79.80
32728;DHT22;55292;51.844;19.246;2023-07-31T12:23:34;23.90;80.50
32728;DHT22;55292;51.844;19.246;2023-07-31T12:28:44;24.30;78.60
32728;DHT22;55292;51.844;19.246;2023-07-31T12:33:49;25.00;77.70
32728;DHT22;55292;51.844;19.246;2023-07-31T12:38:52;25.00;77.40
32728;DHT22;55292;51.844;19.246;2023-07-31T12:43:56;24.80;78.50
32728;DHT22;55292;51.844;19.246;2023-07-31T12:48:58;24.90;79.00
32728;DHT22;55292;51.844;19.246;2023-07-31T12:54:01;24.30;79.30
32728;DHT22;55292;51.844;19.246;2023-07-31T12:59:04;24.10;82.40
32728;DHT22;55292;51.844;19.246;2023-07-31T13:04:06;24.00;85.60
32728;DHT22;55292;51.844;19.246;2023-07-31T13:09:10;24.70;84.50
32728;DHT22;55292;51.844;19.246;2023-07-31T13:14:13;25.90;82.00
32728;DHT22;55292;51.844;19.246;2023-07-31T13:19:16;27.00;77.60
32728;DHT22;55292;51.844;19.246;2023-07-31T13:24:19;27.30;76.10
32728;DHT22;55292;51.844;19.246;2023-07-31T13:29:21;27.30;74.30
32728;DHT22;55292;51.844;19.246;2023-07-31T13:34:24;27.00;74.10
32728;DHT22;55292;51.844;19.246;2023-07-31T13:39:27;26.40;74.90
32728;DHT22;55292;51.844;19.246;2023-07-31T13:44:29;25.70;76.80
32728;DHT22;55292;51.844;19.246;2023-07-31T13:49:33;26.20;77.60
32728;DHT22;55292;51.844;19.246;2023-07-31T13:54:35;26.60;75.40
32728;DHT22;55292;51.844;19.246;2023-07-31T13:59:38;25.70;76.20
32728;DHT22;55292;51.844;19.246;2023-07-31T14:04:41;24.80;78.60
32728;DHT22;55292;51.844;19.246;2023-07-31T14:09:44;25.00;79.20
32728;DHT22;55292;51.844;19.246;2023-07-31T14:14:46;25.30;79.60
32728;DHT22;55292;51.844;19.246;2023-07-31T14:19:49;25.60;79.20
32728;DHT22;55292;51.844;19.246;2023-07-31T14:24:53;25.60;78.80
32728;DHT22;55292;51.844;19.246;2023-07-31T14:29:56;25.60;79.30
32728;DHT22;55292;51.844;19.246;2023-07-31T14:34:59;25.20;80.20
32728;DHT22;55292;51.844;19.246;2023-07-31T14:40:01;24.90;79.80
32728;DHT22;55292;51.844;19.246;2023-07-31T14:45:05;24.70;80.60
32728;DHT22;55292;51.844;19.246;2023-07-31T14:50:09;24.80;81.30
32728;DHT22;55292;51.844;19.246;2023-07-31T14:55:11;24.90;81.00
32728;DHT22;55292;51.844;19.246;2023-07-31T15:00:14;24.80;82.60
32728;DHT22;55292;51.844;19.246;2023-07-31T15:05:17;24.70;80.90
32728;DHT22;55292;51.844;19.246;2023-07-31T15:10:20;24.40;81.50
32728;DHT22;55292;51.844;19.246;2023-07-31T15:15:23;24.10;84.10
32728;DHT22;55292;51.844;19.246;2023-07-31T15:20:26;24.30;84.00
32728;DHT22;55292;51.844;19.246;2023-07-31T15:25:28;23.90;85.20
32728;DHT22;55292;51.844;19.246;2023-07-31T15:30:31;23.90;84.10
32728;DHT22;55292;51.844;19.246;2023-07-31T15:35:34;23.90;85.10
32728;DHT22;55292;51.844;19.246;2023-07-31T15:40:38;23.90;86.40
32728;DHT22;55292;51.844;19.246;2023-07-31T15:45:41;23.70;86.10
32728;DHT22;55292;51.844;19.246;2023-07-31T15:50:46;24.10;85.40
32728;DHT22;55292;51.844;19.246;2023-07-31T15:55:49;23.90;86.20
32728;DHT22;55292;51.844;19.246;2023-07-31T16:00:51;24.00;87.30
32728;DHT22;55292;51.844;19.246;2023-07-31T16:05:55;24.50;85.50
32728;DHT22;55292;51.844;19.246;2023-07-31T16:10:57;24.20;85.00
32728;DHT22;55292;51.844;19.246;2023-07-31T16:16:00;23.90;85.40
32728;DHT22;55292;51.844;19.246;2023-07-31T16:21:03;23.70;85.60
32728;DHT22;55292;51.844;19.246;2023-07-31T16:26:06;23.90;85.00
32728;DHT22;55292;51.844;19.246;2023-07-31T16:31:09;24.20;84.70
32728;DHT22;55292;51.844;19.246;2023-07-31T16:36:12;23.90;85.20
32728;DHT22;55292;51.844;19.246;2023-07-31T16:41:16;23.70;85.70
32728;DHT22;55292;51.844;19.246;2023-07-31T16:46:18;23.50;86.30
32728;DHT22;55292;51.844;19.246;2023-07-31T16:51:21;23.20;87.40
32728;DHT22;55292;51.844;19.246;2023-07-31T16:56:24;23.00;87.80
32728;DHT22;55292;51.844;19.246;2023-07-31T17:01:27;22.90;87.90
32728;DHT22;55292;51.844;19.246;2023-07-31T17:06:35;22.80;89.20
32728;DHT22;55292;51.844;19.246;2023-07-31T17:11:38;22.40;90.10
32728;DHT22;55292;51.844;19.246;2023-07-31T17:16:41;22.20;90.40
32728;DHT22;55292;51.844;19.246;2023-07-31T17:21:44;22.00;91.20
32728;DHT22;55292;51.844;19.246;2023-07-31T17:26:47;21.90;91.50
32728;DHT22;55292;51.844;19.246;2023-07-31T17:31:51;21.80;91.90
32728;DHT22;55292;51.844;19.246;2023-07-31T17:36:54;21.70;92.30
32728;DHT22;55292;51.844;19.246;2023-07-31T17:41:56;21.60;92.70
32728;DHT22;55292;51.844;19.246;2023-07-31T17:46:59;21.50;92.80
32728;DHT22;55292;51.844;19.246;2023-07-31T17:52:02;21.50;92.90
32728;DHT22;55292;51.844;19.246;2023-07-31T17:57:05;21.50;93.20
32728;DHT22;55292;51.844;19.246;2023-07-31T18:02:10;21.50;93.50
32728;DHT22;55292;51.844;19.246;2023-07-31T18:07:13;21.40;93.80
32728;DHT22;55292;51.844;19.246;2023-07-31T18:12:16;21.20;94.20
32728;DHT22;55292;51.844;19.246;2023-07-31T18:17:18;20.80;94.70
32728;DHT22;55292;51.844;19.246;2023-07-31T18:22:21;20.70;95.30
32728;DHT22;55292;51.844;19.246;2023-07-31T18:27:24;20.50;95.30
32728;DHT22;55292;51.844;19.246;2023-07-31T18:32:27;20.40;96.10
32728;DHT22;55292;51.844;19.246;2023-07-31T18:37:30;20.30;96.70
32728;DHT22;55292;51.844;19.246;2023-07-31T18:42:33;20.10;97.40
32728;DHT22;55292;51.844;19.246;2023-07-31T18:47:36;20.00;97.80
32728;DHT22;55292;51.844;19.246;2023-07-31T18:52:39;19.90;98.60
32728;DHT22;55292;51.844;19.246;2023-07-31T18:57:42;19.60;99.90
32728;DHT22;55292;51.844;19.246;2023-07-31T19:02:45;19.50;99.90
32728;DHT22;55292;51.844;19.246;2023-07-31T19:07:49;19.40;99.90
32728;DHT22;55292;51.844;19.246;2023-07-31T19:12:52;19.10;99.90
32728;DHT22;55292;51.844;19.246;2023-07-31T19:17:55;19.10;99.90
32728;DHT22;55292;51.844;19.246;2023-07-31T19:22:58;19.30;99.90
32728;DHT22;55292;51.844;19.246;2023-07-31T19:28:01;19.20;99.90
32728;DHT22;55292;51.844;19.246;2023-07-31T19:33:04;19.20;99.90
32728;DHT22;55292;51.844;19.246;2023-07-31T19:38:07;19.10;99.90
32728;DHT22;55292;51.844;19.246;2023-07-31T19:43:10;19.00;99.90
32728;DHT22;55292;51.844;19.246;2023-07-31T19:48:13;19.00;99.90
32728;DHT22;55292;51.844;19.246;2023-07-31T19:53:17;18.90;99.90
32728;DHT22;55292;51.844;19.246;2023-07-31T19:58:19;18.90;99.90
32728;DHT22;55292;51.844;19.246;2023-07-31T20:03:22;18.80;99.90
32728;DHT22;55292;51.844;19.246;2023-07-31T20:08:25;18.80;99.90
32728;DHT22;55292;51.844;19.246;2023-07-31T20:13:29;18.90;99.90
32728;DHT22;55292;51.844;19.246;2023-07-31T20:18:33;19.00;99.90
32728;DHT22;55292;51.844;19.246;2023-07-31T20:23:37;19.10;99.90
32728;DHT22;55292;51.844;19.246;2023-07-31T20:28:44;19.20;99.90
32728;DHT22;55292;51.844;19.246;2023-07-31T20:33:48;18.30;99.90
32728;DHT22;55292;51.844;19.246;2023-07-31T20:38:51;19.30;99.90
32728;DHT22;55292;51.844;19.246;2023-07-31T20:43:54;19.30;99.90
32728;DHT22;55292;51.844;19.246;2023-07-31T20:48:56;19.20;99.90
32728;DHT22;55292;51.844;19.246;2023-07-31T20:53:59;19.10;99.90
32728;DHT22;55292;51.844;19.246;2023-07-31T20:59:02;19.00;99.90
32728;DHT22;55292;51.844;19.246;2023-07-31T21:04:05;18.70;99.90
32728;DHT22;55292;51.844;19.246;2023-07-31T21:09:08;18.10;99.90
32728;DHT22;55292;51.844;19.246;2023-07-31T21:14:11;17.60;99.90
32728;DHT22;55292;51.844;19.246;2023-07-31T21:19:13;17.20;99.90
32728;DHT22;55292;51.844;19.246;2023-07-31T21:24:17;16.80;99.90
32728;DHT22;55292;51.844;19.246;2023-07-31T21:29:20;16.50;99.90
32728;DHT22;55292;51.844;19.246;2023-07-31T21:34:22;16.30;99.90
32728;DHT22;55292;51.844;19.246;2023-07-31T21:39:25;16.30;99.90
32728;DHT22;55292;51.844;19.246;2023-07-31T21:44:27;16.60;99.90
32728;DHT22;55292;51.844;19.246;2023-07-31T21:49:30;16.60;99.90
32728;DHT22;55292;51.844;19.246;2023-07-31T21:54:33;16.40;99.90
32728;DHT22;55292;51.844;19.246;2023-07-31T21:59:35;16.40;99.90
32728;DHT22;55292;51.844;19.246;2023-07-31T22:04:40;16.60;99.90
32728;DHT22;55292;51.844;19.246;2023-07-31T22:09:46;16.70;99.90
32728;DHT22;55292;51.844;19.246;2023-07-31T22:14:49;17.00;99.90
32728;DHT22;55292;51.844;19.246;2023-07-31T22:19:52;17.10;99.90
32728;DHT22;55292;51.844;19.246;2023-07-31T22:24:54;17.20;99.90
32728;DHT22;55292;51.844;19.246;2023-07-31T22:30:00;17.40;99.90
32728;DHT22;55292;51.844;19.246;2023-07-31T22:35:03;17.50;99.90
32728;DHT22;55292;51.844;19.246;2023-07-31T22:40:07;17.60;99.90
32728;DHT22;55292;51.844;19.246;2023-07-31T22:45:10;17.70;99.90
32728;DHT22;55292;51.844;19.246;2023-07-31T22:50:13;17.70;99.90
32728;DHT22;55292;51.844;19.246;2023-07-31T22:55:15;17.70;99.90
32728;DHT22;55292;51.844;19.246;2023-07-31T23:00:18;17.70;99.90
32728;DHT22;55292;51.844;19.246;2023-07-31T23:05:21;17.70;99.90
32728;DHT22;55292;51.844;19.246;2023-07-31T23:10:25;17.80;99.90
32728;DHT22;55292;51.844;19.246;2023-07-31T23:15:28;17.90;99.90
32728;DHT22;55292;51.844;19.246;2023-07-31T23:20:31;17.90;99.90
32728;DHT22;55292;51.844;19.246;2023-07-31T23:25:37;17.90;99.90
32728;DHT22;55292;51.844;19.246;2023-07-31T23:30:40;17.90;99.90
32728;DHT22;55292;51.844;19.246;2023-07-31T23:35:43;17.90;99.90
32728;DHT22;55292;51.844;19.246;2023-07-31T23:40:46;17.80;99.90
32728;DHT22;55292;51.844;19.246;2023-07-31T23:45:49;17.70;99.90
32728;DHT22;55292;51.844;19.246;2023-07-31T23:50:52;17.50;99.90
32728;DHT22;55292;51.844;19.246;2023-07-31T23:55:54;17.30;99.90
